createdAt,value
2019-04-19T00:01:34.291Z,90.10
2019-04-19T00:04:05.966Z,89.00
2019-04-19T00:06:36.396Z,90.40
2019-04-19T00:09:16.704Z,89.30
2019-04-19T00:11:40.267Z,89.30
2019-04-19T00:14:04.317Z,88.90
2019-04-19T00:16:34.129Z,87.60
2019-04-19T00:19:29.041Z,88.80
2019-04-19T00:22:00.686Z,88.70
2019-04-19T00:24:03.783Z,90.10
2019-04-19T00:26:33.742Z,91.10
2019-04-19T00:29:05.868Z,91.60
2019-04-19T00:31:44.359Z,91.70
2019-04-19T00:34:04.267Z,92.00
2019-04-19T00:36:34.007Z,92.20
2019-04-19T00:39:24.085Z,91.90
2019-04-19T00:42:01.059Z,91.10
2019-04-19T00:44:40.023Z,91.30
2019-04-19T00:47:09.134Z,91.70
2019-04-19T00:49:27.890Z,91.90
2019-04-19T00:52:08.885Z,92.40
2019-04-19T00:54:27.942Z,92.40
2019-04-19T00:56:59.814Z,93.40
2019-04-19T00:59:23.272Z,94.40
2019-04-19T01:01:59.233Z,96.00
2019-04-19T01:04:27.617Z,96.70
2019-04-19T01:06:57.121Z,97.40
2019-04-19T01:09:34.495Z,97.60
2019-04-19T01:12:07.026Z,97.50
2019-04-19T01:14:36.357Z,98.30
2019-04-19T01:17:12.627Z,99.10
2019-04-19T01:19:28.031Z,99.70
2019-04-19T01:21:57.524Z,99.70
2019-04-19T01:24:33.422Z,99.30
2019-04-19T01:26:58.777Z,99.90
2019-04-19T01:29:30.244Z,99.90
2019-04-19T01:32:06.225Z,99.90
2019-04-19T01:34:30.877Z,99.90
2019-04-19T01:36:59.141Z,99.90
2019-04-19T01:39:39.897Z,99.90
2019-04-19T01:42:11.743Z,99.90
2019-04-19T01:44:47.810Z,99.90
2019-04-19T01:47:29.428Z,99.90
2019-04-19T01:49:52.953Z,99.90
2019-04-19T01:52:36.656Z,99.90
2019-04-19T01:54:53.446Z,99.90
2019-04-19T01:57:11.488Z,99.90
2019-04-19T01:59:45.241Z,99.90
2019-04-19T02:02:14.288Z,99.90
2019-04-19T02:04:41.365Z,99.90
2019-04-19T02:07:13.454Z,99.90
2019-04-19T02:09:56.781Z,99.90
2019-04-19T02:12:26.146Z,99.90
2019-04-19T02:14:51.660Z,99.90
2019-04-19T02:17:15.181Z,99.90
2019-04-19T02:19:50.127Z,99.90
2019-04-19T02:22:21.141Z,99.90
2019-04-19T02:24:50.254Z,99.90
2019-04-19T02:27:16.959Z,99.90
2019-04-19T02:29:54.141Z,99.90
2019-04-19T02:32:35.899Z,99.90
2019-04-19T02:35:11.145Z,99.90
2019-04-19T02:37:39.925Z,99.90
2019-04-19T02:40:31.313Z,99.90
2019-04-19T02:50:21.584Z,99.90
2019-04-19T02:55:17.099Z,99.90
2019-04-19T02:57:47.815Z,99.90
2019-04-19T03:07:32.856Z,99.90
2019-04-19T03:10:04.989Z,99.90
2019-04-19T03:12:48.237Z,99.90
2019-04-19T03:15:13.863Z,99.90
2019-04-19T03:17:51.788Z,99.90
2019-04-19T03:20:24.698Z,99.90
2019-04-19T03:22:53.232Z,99.90
2019-04-19T03:25:21.350Z,99.90
2019-04-19T03:27:52.160Z,99.90
2019-04-19T03:30:27.131Z,99.90
2019-04-19T03:35:21.962Z,99.90
2019-04-19T03:38:02.610Z,99.90
2019-04-19T03:40:29.995Z,99.90
2019-04-19T03:43:26.106Z,99.90
2019-04-19T03:45:56.475Z,99.90
2019-04-19T03:48:23.841Z,99.90
2019-04-19T03:50:54.663Z,99.90
2019-04-19T03:53:30.889Z,99.90
2019-04-19T03:56:01.806Z,99.90
2019-04-19T03:58:11.399Z,99.90
2019-04-19T04:00:36.378Z,99.90
2019-04-19T04:03:14.044Z,99.90
2019-04-19T04:05:43.594Z,99.90
2019-04-19T04:08:27.300Z,99.90
2019-04-19T04:11:07.002Z,99.90
2019-04-19T04:13:43.110Z,99.90
2019-04-19T04:16:18.712Z,99.90
2019-04-19T04:18:37.173Z,99.90
2019-04-19T04:21:07.528Z,99.90
2019-04-19T04:23:41.199Z,99.90
2019-04-19T04:26:14.005Z,99.90
2019-04-19T04:28:49.187Z,99.90
2019-04-19T04:31:18.621Z,99.90
2019-04-19T04:33:51.765Z,99.90
2019-04-19T04:36:40.901Z,99.90
2019-04-19T04:38:44.046Z,99.90
2019-04-19T04:41:15.832Z,99.90
2019-04-19T04:44:00.195Z,99.90
2019-04-19T04:46:53.072Z,99.90
2019-04-19T04:49:34.520Z,99.90
2019-04-19T04:52:08.707Z,99.90
2019-04-19T04:54:29.193Z,99.90
2019-04-19T04:57:17.861Z,99.90
2019-04-19T04:59:50.169Z,99.90
2019-04-19T05:02:37.734Z,99.90
2019-04-19T05:05:08.671Z,99.90
2019-04-19T05:07:33.465Z,99.90
2019-04-19T05:10:08.522Z,99.90
2019-04-19T05:12:54.792Z,99.90
2019-04-19T05:15:07.582Z,99.90
2019-04-19T05:17:49.714Z,99.90
2019-04-19T05:20:11.969Z,99.90
2019-04-19T05:22:35.507Z,99.90
2019-04-19T05:25:19.408Z,99.90
2019-04-19T05:27:40.246Z,99.90
2019-04-19T05:29:56.310Z,99.90
2019-04-19T05:32:29.780Z,99.90
2019-04-19T05:35:10.335Z,99.90
2019-04-19T05:37:54.599Z,99.90
2019-04-19T05:40:24.074Z,99.90
2019-04-19T05:42:59.142Z,99.90
2019-04-19T05:47:59.108Z,99.90
2019-04-19T05:50:36.233Z,99.90
2019-04-19T05:53:06.380Z,99.90
2019-04-19T05:55:20.633Z,99.90
2019-04-19T05:58:02.338Z,99.90
2019-04-19T06:00:37.561Z,99.90
2019-04-19T06:03:02.692Z,99.90
2019-04-19T06:05:48.474Z,99.90
2019-04-19T06:08:05.178Z,99.90
2019-04-19T06:10:31.430Z,99.90
2019-04-19T06:13:02.851Z,99.90
2019-04-19T06:15:51.253Z,99.90
2019-04-19T06:18:19.050Z,99.90
2019-04-19T06:20:51.789Z,99.90
2019-04-19T06:23:24.291Z,99.90
2019-04-19T06:26:04.758Z,99.90
2019-04-19T06:28:28.639Z,99.90
2019-04-19T06:30:53.488Z,99.90
2019-04-19T06:33:27.196Z,99.90
2019-04-19T06:35:44.956Z,99.90
2019-04-19T06:38:05.882Z,99.90
2019-04-19T06:40:37.517Z,99.90
2019-04-19T06:43:12.574Z,99.90
2019-04-19T06:45:55.497Z,99.90
2019-04-19T06:48:12.806Z,99.90
2019-04-19T06:50:41.280Z,99.90
2019-04-19T06:53:06.417Z,99.90
2019-04-19T06:55:42.228Z,99.80
2019-04-19T06:58:14.088Z,98.50
2019-04-19T07:00:53.776Z,99.10
2019-04-19T07:03:10.447Z,96.90
2019-04-19T07:05:49.250Z,97.10
2019-04-19T07:08:51.443Z,95.90
2019-04-19T07:11:08.655Z,95.60
2019-04-19T07:13:25.852Z,94.80
2019-04-19T07:16:11.828Z,94.40
2019-04-19T07:18:28.989Z,93.70
2019-04-19T07:21:07.800Z,93.90
2019-04-19T07:23:34.250Z,93.30
2019-04-19T07:26:13.872Z,92.00
2019-04-19T07:28:26.441Z,91.30
2019-04-19T07:30:57.479Z,92.00
2019-04-19T07:33:31.449Z,91.80
2019-04-19T07:36:14.627Z,90.70
2019-04-19T07:38:50.658Z,90.80
2019-04-19T07:41:12.350Z,90.80
2019-04-19T07:43:56.164Z,90.20
2019-04-19T07:46:31.365Z,89.90
2019-04-19T07:49:02.090Z,90.40
2019-04-19T07:51:37.892Z,90.30
2019-04-19T07:54:09.667Z,89.10
2019-04-19T07:56:48.476Z,90.10
2019-04-19T07:59:33.585Z,89.50
2019-04-19T08:02:07.124Z,87.90
2019-04-19T08:29:38.402Z,80.70
2019-04-19T08:32:02.562Z,81.50
2019-04-19T08:34:32.877Z,81.10
2019-04-19T08:37:04.659Z,80.40
2019-04-19T08:39:49.922Z,80.80
2019-04-19T08:42:28.603Z,78.50
2019-04-19T08:44:47.570Z,78.50
2019-04-19T08:47:37.640Z,79.00
2019-04-19T08:50:09.182Z,77.40
2019-04-19T08:52:39.919Z,78.90
2019-04-19T08:55:29.091Z,79.80
2019-04-19T08:57:40.835Z,73.90
2019-04-19T09:00:40.923Z,72.00
2019-04-19T09:02:57.100Z,71.20
2019-04-19T09:05:27.445Z,71.40
2019-04-19T09:08:05.644Z,68.80
2019-04-19T09:10:33.751Z,67.80
2019-04-19T09:13:19.529Z,68.00
2019-04-19T09:15:33.044Z,65.90
2019-04-19T09:18:26.663Z,64.40
2019-04-19T09:20:47.562Z,63.80
2019-04-19T09:23:09.528Z,63.40
2019-04-19T09:25:43.353Z,63.90
2019-04-19T09:28:33.456Z,63.00
2019-04-19T09:30:49.376Z,64.60
2019-04-19T09:33:09.897Z,62.80
2019-04-19T09:35:40.032Z,62.30
2019-04-19T09:38:13.730Z,63.40
2019-04-19T09:40:41.465Z,61.90
2019-04-19T09:43:19.963Z,63.00
2019-04-19T09:45:36.302Z,64.10
2019-04-19T09:48:05.532Z,63.60
2019-04-19T09:50:49.983Z,61.70
2019-04-19T09:53:32.032Z,62.80
2019-04-19T09:55:55.496Z,62.30
2019-04-19T09:58:27.651Z,60.80
2019-04-19T10:00:37.035Z,61.40
2019-04-19T10:03:18.882Z,61.10
2019-04-19T10:05:41.141Z,59.90
2019-04-19T10:08:09.458Z,59.10
2019-04-19T10:10:38.854Z,59.10
2019-04-19T10:13:08.021Z,60.40
2019-04-19T10:15:38.465Z,58.50
2019-04-19T10:18:07.054Z,60.30
2019-04-19T10:20:47.377Z,59.30
2019-04-19T10:23:17.514Z,60.00
2019-04-19T10:25:54.962Z,57.40
2019-04-19T10:28:21.928Z,57.40
2019-04-19T10:30:57.331Z,58.50
2019-04-19T10:33:33.189Z,57.20
2019-04-19T10:35:56.700Z,56.90
2019-04-19T10:38:25.532Z,57.50
2019-04-19T10:40:54.051Z,58.00
2019-04-19T10:43:27.386Z,55.70
2019-04-19T10:45:57.498Z,56.10
2019-04-19T10:48:26.058Z,56.70
2019-04-19T10:50:57.114Z,56.30
2019-04-19T10:53:26.333Z,55.60
2019-04-19T10:56:02.782Z,55.00
2019-04-19T10:58:31.275Z,53.20
2019-04-19T11:01:01.073Z,54.00
2019-04-19T11:03:30.706Z,54.10
2019-04-19T11:06:00.707Z,53.20
2019-04-19T11:08:30.764Z,53.00
2019-04-19T11:10:59.416Z,52.40
2019-04-19T11:13:29.169Z,51.40
2019-04-19T11:15:58.379Z,51.20
2019-04-19T11:18:27.746Z,51.80
2019-04-19T11:20:58.970Z,52.00
2019-04-19T11:23:27.154Z,50.40
2019-04-19T11:25:56.852Z,52.10
2019-04-19T11:28:27.002Z,50.00
2019-04-19T11:31:02.986Z,49.10
2019-04-19T11:33:33.144Z,49.50
2019-04-19T11:36:01.984Z,47.50
2019-04-19T11:38:31.355Z,48.90
2019-04-19T11:41:00.936Z,47.30
2019-04-19T11:43:29.760Z,47.20
2019-04-19T11:45:58.230Z,46.50
2019-04-19T11:48:27.062Z,45.70
2019-04-19T11:50:55.965Z,46.00
2019-04-19T11:53:30.092Z,46.30
2019-04-19T11:56:18.636Z,44.70
2019-04-19T11:58:50.797Z,46.00
2019-04-19T12:01:28.097Z,46.30
2019-04-19T12:03:58.330Z,46.00
2019-04-19T12:06:27.049Z,45.50
2019-04-19T12:08:56.356Z,44.60
2019-04-19T12:11:26.329Z,44.80
2019-04-19T12:13:56.448Z,45.70
2019-04-19T12:16:25.239Z,45.10
2019-04-19T12:18:54.160Z,45.50
2019-04-19T12:21:23.161Z,46.60
2019-04-19T12:23:52.985Z,44.80
2019-04-19T12:26:21.876Z,43.90
2019-04-19T12:28:51.310Z,44.30
2019-04-19T12:31:21.188Z,44.70
2019-04-19T12:33:49.792Z,43.80
2019-04-19T12:36:21.910Z,44.00
2019-04-19T12:38:50.711Z,46.30
2019-04-19T12:41:19.802Z,46.70
2019-04-19T12:43:49.847Z,43.70
2019-04-19T12:46:19.163Z,44.80
2019-04-19T12:48:48.242Z,44.30
2019-04-19T12:51:19.286Z,42.30
2019-04-19T12:53:49.146Z,42.50
2019-04-19T12:56:18.031Z,43.10
2019-04-19T12:58:46.558Z,42.80
2019-04-19T13:01:17.804Z,43.80
2019-04-19T13:03:54.623Z,44.00
2019-04-19T13:06:29.631Z,44.40
2019-04-19T13:08:59.243Z,45.30
2019-04-19T13:11:29.241Z,44.40
2019-04-19T13:13:57.861Z,45.10
2019-04-19T13:16:26.410Z,43.20
2019-04-19T13:18:56.200Z,44.20
2019-04-19T13:21:26.189Z,44.40
2019-04-19T13:23:56.062Z,43.60
2019-04-19T13:26:25.221Z,44.70
2019-04-19T13:28:53.773Z,46.10
2019-04-19T13:31:24.959Z,42.80
2019-04-19T13:33:53.565Z,43.10
2019-04-19T13:36:24.826Z,43.40
2019-04-19T13:39:01.438Z,45.40
2019-04-19T13:41:38.839Z,46.00
2019-04-19T13:44:07.430Z,45.00
2019-04-19T13:46:37.066Z,46.30
2019-04-19T13:49:06.459Z,43.20
2019-04-19T13:51:36.313Z,43.70
2019-04-19T13:54:06.866Z,43.70
2019-04-19T13:56:36.561Z,45.50
2019-04-19T13:59:05.571Z,45.60
2019-04-19T14:01:34.489Z,44.30
2019-04-19T14:04:03.685Z,44.10
2019-04-19T14:06:32.695Z,44.50
2019-04-19T14:09:01.337Z,42.70
2019-04-19T14:11:31.037Z,42.40
2019-04-19T14:14:01.902Z,42.60
2019-04-19T14:16:30.359Z,44.80
2019-04-19T14:19:00.829Z,44.30
2019-04-19T14:21:30.816Z,43.30
2019-04-19T14:23:59.706Z,42.80
2019-04-19T14:26:37.469Z,43.00
2019-04-19T14:28:59.188Z,44.00
2019-04-19T14:31:28.338Z,44.80
2019-04-19T14:33:57.413Z,44.30
2019-04-19T14:36:26.220Z,45.70
2019-04-19T14:38:55.056Z,46.10
2019-04-19T14:41:25.306Z,44.60
2019-04-19T14:43:55.282Z,44.00
2019-04-19T14:46:24.823Z,43.90
2019-04-19T14:48:53.522Z,44.70
2019-04-19T14:51:27.573Z,45.00
2019-04-19T14:53:52.623Z,45.60
2019-04-19T14:56:21.746Z,45.50
2019-04-19T14:58:50.440Z,46.80
2019-04-19T15:01:24.704Z,44.70
2019-04-19T15:03:56.992Z,47.90
2019-04-19T15:06:25.953Z,44.20
2019-04-19T15:08:54.878Z,44.60
2019-04-19T15:11:23.838Z,44.60
2019-04-19T15:13:54.071Z,43.80
2019-04-19T15:16:23.233Z,45.60
2019-04-19T15:18:51.978Z,45.30
2019-04-19T15:21:21.941Z,44.50
2019-04-19T15:23:50.734Z,46.40
2019-04-19T15:26:20.624Z,46.20
2019-04-19T15:28:53.139Z,44.10
2019-04-19T15:31:22.041Z,44.90
2019-04-19T15:33:52.425Z,45.20
2019-04-19T15:36:21.802Z,44.20
2019-04-19T15:38:52.209Z,45.70
2019-04-19T15:41:22.112Z,43.60
2019-04-19T15:43:50.611Z,43.10
2019-04-19T15:46:19.872Z,44.30
2019-04-19T15:48:52.528Z,44.80
2019-04-19T15:51:26.898Z,44.80
2019-04-19T15:53:52.080Z,45.30
2019-04-19T15:56:22.946Z,47.20
2019-04-19T15:58:51.812Z,44.70
2019-04-19T16:01:30.970Z,46.30
2019-04-19T16:04:01.741Z,44.20
2019-04-19T16:06:32.313Z,46.00
2019-04-19T16:09:19.308Z,45.40
2019-04-19T16:11:58.880Z,46.90
2019-04-19T16:14:30.025Z,46.60
2019-04-19T16:16:58.715Z,48.90
2019-04-19T16:19:28.205Z,51.40
2019-04-19T16:22:00.236Z,49.30
2019-04-19T16:24:27.331Z,47.00
2019-04-19T16:26:57.260Z,46.40
2019-04-19T16:29:35.468Z,44.80
2019-04-19T16:31:56.683Z,44.10
2019-04-19T16:34:25.311Z,42.20
2019-04-19T16:36:54.194Z,43.00
2019-04-19T16:39:23.748Z,43.90
2019-04-19T16:41:53.524Z,46.20
2019-04-19T16:44:23.400Z,47.80
2019-04-19T16:46:53.023Z,49.60
2019-04-19T16:49:22.651Z,43.80
2019-04-19T16:51:54.434Z,43.00
2019-04-19T16:54:22.536Z,46.10
2019-04-19T16:56:52.547Z,43.30
2019-04-19T16:59:21.761Z,43.50
2019-04-19T17:01:50.849Z,43.00
2019-04-19T17:04:19.839Z,43.20
2019-04-19T17:06:48.931Z,44.00
2019-04-19T17:09:17.468Z,43.90
2019-04-19T17:11:47.570Z,44.20
2019-04-19T17:14:16.905Z,44.30
2019-04-19T17:16:50.742Z,44.50
2019-04-19T17:19:21.467Z,45.80
2019-04-19T17:21:57.190Z,48.40
2019-04-19T17:24:20.902Z,48.60
2019-04-19T17:26:51.028Z,53.30
2019-04-19T17:29:19.632Z,58.30
2019-04-19T17:31:48.116Z,53.10
2019-04-19T17:34:17.961Z,52.00
2019-04-19T17:36:46.595Z,60.40
2019-04-19T17:39:15.037Z,56.30
2019-04-19T17:41:44.624Z,55.10
2019-04-19T17:44:15.504Z,63.60
2019-04-19T17:46:44.718Z,53.80
2019-04-19T17:49:14.742Z,50.10
2019-04-19T17:51:43.327Z,57.30
2019-04-19T17:54:18.832Z,59.40
2019-04-19T17:56:43.374Z,63.40
2019-04-19T17:59:14.970Z,63.30
2019-04-19T18:01:42.673Z,57.90
2019-04-19T18:04:11.432Z,66.00
2019-04-19T18:06:44.317Z,65.10
2019-04-19T18:09:15.832Z,65.90
2019-04-19T18:11:43.080Z,65.30
2019-04-19T18:14:11.753Z,65.50
2019-04-19T18:16:42.606Z,65.50
2019-04-19T18:19:16.443Z,66.90
2019-04-19T18:21:43.818Z,67.90
2019-04-19T18:24:18.924Z,60.10
2019-04-19T18:26:44.327Z,62.60
2019-04-19T18:29:19.270Z,64.00
2019-04-19T18:31:48.971Z,64.10
2019-04-19T18:34:17.346Z,68.90
2019-04-19T18:36:51.117Z,69.40
2019-04-19T18:39:16.272Z,68.40
2019-04-19T18:41:45.497Z,68.20
2019-04-19T18:44:23.819Z,67.70
2019-04-19T18:46:46.838Z,68.60
2019-04-19T18:49:15.915Z,74.90
2019-04-19T18:51:49.545Z,76.70
2019-04-19T18:54:23.558Z,75.20
2019-04-19T18:56:49.854Z,75.30
2019-04-19T18:59:22.744Z,73.30
2019-04-19T19:01:49.528Z,72.30
2019-04-19T19:04:23.365Z,75.70
2019-04-19T19:06:49.972Z,73.80
2019-04-19T19:09:21.258Z,77.40
2019-04-19T19:11:56.712Z,78.50
2019-04-19T19:14:21.444Z,76.50
2019-04-19T19:16:54.537Z,78.80
2019-04-19T19:19:27.521Z,71.70
2019-04-19T19:21:55.871Z,73.10
2019-04-19T19:24:44.173Z,76.10
2019-04-19T19:27:05.377Z,78.50
2019-04-19T19:29:27.991Z,76.00
2019-04-19T19:32:04.807Z,77.10
2019-04-19T19:34:31.330Z,76.60
2019-04-19T19:37:00.996Z,77.50
2019-04-19T19:39:35.225Z,77.20
2019-04-19T19:42:36.188Z,79.30
2019-04-19T19:44:43.945Z,79.00
2019-04-19T19:47:47.767Z,77.10
2019-04-19T19:50:17.896Z,75.70
2019-04-19T19:52:37.285Z,75.80
2019-04-19T19:55:08.369Z,80.00
2019-04-19T19:57:36.345Z,76.70
2019-04-19T20:00:04.332Z,76.10
2019-04-19T20:02:35.028Z,76.70
2019-04-19T20:04:53.278Z,78.00
2019-04-19T20:07:24.360Z,79.20
2019-04-19T20:09:57.365Z,74.90
2019-04-19T20:12:26.482Z,77.20
2019-04-19T20:14:56.118Z,77.40
2019-04-19T20:17:29.495Z,76.90
2019-04-19T20:19:58.267Z,79.50
2019-04-19T20:22:43.565Z,78.30
2019-04-19T20:25:24.515Z,77.50
2019-04-19T20:27:48.617Z,77.10
2019-04-19T20:30:19.411Z,78.20
2019-04-19T20:32:52.895Z,79.20
2019-04-19T20:35:22.978Z,77.90
2019-04-19T20:37:52.026Z,77.30
2019-04-19T20:40:24.508Z,77.90
2019-04-19T20:43:10.661Z,75.50
2019-04-19T20:45:34.313Z,77.60
2019-04-19T20:47:54.754Z,78.40
2019-04-19T20:50:37.360Z,76.90
2019-04-19T20:53:09.592Z,76.80
2019-04-19T20:55:45.203Z,77.00
2019-04-19T20:58:10.464Z,76.80
2019-04-19T21:00:36.779Z,77.40
2019-04-19T21:03:05.888Z,77.80
2019-04-19T21:05:40.144Z,76.80
2019-04-19T21:08:09.615Z,76.30
2019-04-19T21:10:37.141Z,77.90
2019-04-19T21:13:10.586Z,78.90
2019-04-19T21:15:38.835Z,77.40
2019-04-19T21:18:10.579Z,77.60
2019-04-19T21:20:38.310Z,77.40
2019-04-19T21:23:16.111Z,77.70
2019-04-19T21:25:46.809Z,78.10
2019-04-19T21:28:10.611Z,77.90
2019-04-19T21:30:45.971Z,78.10
2019-04-19T21:33:13.401Z,78.20
2019-04-19T21:35:48.425Z,78.20
2019-04-19T21:38:17.247Z,75.80
2019-04-19T21:40:43.735Z,79.70
2019-04-19T21:43:14.853Z,78.50
2019-04-19T21:45:49.814Z,77.70
2019-04-19T21:48:18.010Z,78.40
2019-04-19T21:50:50.340Z,79.30
2019-04-19T21:53:22.798Z,79.20
2019-04-19T21:55:59.665Z,79.30
2019-04-19T21:58:24.824Z,80.90
2019-04-19T22:01:03.586Z,81.30
2019-04-19T22:03:32.414Z,79.70
2019-04-19T22:06:09.115Z,77.80
2019-04-19T22:08:33.387Z,80.40
2019-04-19T22:11:00.946Z,80.30
2019-04-19T22:13:37.750Z,80.20
2019-04-19T22:16:04.490Z,81.50
2019-04-19T22:18:41.902Z,80.00
2019-04-19T22:21:10.548Z,80.80
2019-04-19T22:23:41.497Z,84.10
2019-04-19T22:26:20.170Z,81.70
2019-04-19T22:28:41.954Z,81.70
2019-04-19T22:31:12.528Z,83.10
2019-04-19T22:33:42.878Z,81.50
2019-04-19T22:36:11.392Z,81.40
2019-04-19T22:38:50.128Z,81.70
2019-04-19T22:41:17.161Z,83.10
2019-04-19T22:43:45.228Z,84.60
2019-04-19T22:46:17.050Z,85.70
2019-04-19T22:48:55.359Z,83.90
2019-04-19T22:51:18.620Z,82.60
2019-04-19T22:53:48.378Z,83.90
2019-04-19T22:56:25.874Z,84.70
2019-04-19T22:58:47.397Z,83.90
2019-04-19T23:01:28.378Z,85.20
2019-04-19T23:04:00.118Z,85.00
2019-04-19T23:06:30.491Z,85.70
2019-04-19T23:08:58.835Z,86.60
2019-04-19T23:11:27.702Z,86.40
2019-04-19T23:13:57.208Z,85.70
2019-04-19T23:16:27.219Z,86.50
2019-04-19T23:19:01.299Z,85.70
2019-04-19T23:21:26.673Z,86.70
2019-04-19T23:24:00.577Z,86.10
2019-04-19T23:26:45.535Z,86.30
2019-04-19T23:28:57.263Z,87.90
2019-04-19T23:31:27.172Z,88.30
2019-04-19T23:34:00.976Z,88.00
2019-04-19T23:36:26.362Z,89.60
2019-04-19T23:38:59.787Z,88.70
2019-04-19T23:41:26.910Z,88.90
2019-04-19T23:43:55.655Z,89.30
2019-04-19T23:46:29.255Z,90.00
2019-04-19T23:49:02.774Z,89.40
2019-04-19T23:51:25.275Z,89.30
2019-04-19T23:53:54.382Z,89.60
2019-04-19T23:56:32.597Z,89.90
2019-04-19T23:58:54.332Z,90.10
